KLUL/LUL METAR and TAF weather

Enter ICAO airport designator
Station Type Date Time Source
KLUL METAR 2019/05/19 20:55 UTC NOAA

KLUL 192055Z AUTO 16004KT 10SM BKN010 23/20 A2998 RMK A02 T02280205 60005


Station Type Date Time Source
KLUL Decoded METAR 2019/05/19 20:55 UTC NOAA

Station name not available
May 19, 2019 - 04:55 PM EDT / 2019.05.19 2055 UTC
Wind: from the SSE (160 degrees) at 5 MPH (4 KT):0
Visibility: 10 mile(s):0
Sky conditions: mostly cloudy
Temperature: 73.0 F (22.8 C)
Dew Point: 68.9 F (20.5 C)
Relative Humidity: 86%
Pressure (altimeter): 29.98 in. Hg (1015 hPa)
ob: KLUL 192055Z AUTO 16004KT 10SM BKN010 23/20 A2998 RMK A02 T02280205 60005
cycle: 21

Station Type Date Time Source
KLUL TAF UTC NOAA

Error!

Example: see airport list